Time;durP1;ratioP1;P1;durP2;ratioP2;P2;SDS_P1;SDS_P2;PMS_P1;PMS_P2;Temp;Humidity;BMP_temperature;BMP_pressure;BME280_temperature;BME280_humidity;BME280_pressure;Samples;Min_cycle;Max_cycle;Signal;HPM_P1;HPM_P2
2022/03/15 00:01:54;;;;;;;;;;;;;;;;;;4995655;28;20416;-49
2022/03/15 00:04:19;;;;;;;;;;;;;;;;;;4996908;28;19941;-51
2022/03/15 00:06:46;;;;;;;;;;;;;;;;;;4996598;28;20369;-48
2022/03/15 00:09:11;;;;;;;;;;;;;;;;;;4997012;28;19910;-49
2022/03/15 00:11:39;;;;;;;;;;;;;;;;;;4997021;28;19956;-48
2022/03/15 00:14:04;;;;;;;;;;;;;;;;;;4996918;28;20043;-48
2022/03/15 00:16:29;;;;;;;;;;;;;;;;;;4996317;28;19945;-48
2022/03/15 00:18:55;;;;;;;;;;;;;;;;;;4996510;28;19922;-48
2022/03/15 00:21:20;;;;;;;;;;;;;;;;;;4996553;28;20324;-48
2022/03/15 00:23:46;;;;;;;;;;;;;;;;;;4996408;28;20330;-49
2022/03/15 00:26:11;;;;;;;;;;;;;;;;;;4995347;28;20004;-49
2022/03/15 00:28:36;;;;;;;;;;;;;;;;;;4996329;28;20003;-49
2022/03/15 00:31:01;;;;;;;;;;;;;;;;;;4996448;28;19910;-51
2022/03/15 00:33:26;;;;;;;;;;;;;;;;;;4996393;28;19963;-51
2022/03/15 00:35:53;;;;;;;;;;;;;;;;;;4995665;28;20389;-50
2022/03/15 00:38:18;;;;;;;;;;;;;;;;;;4996245;28;19910;-49
2022/03/15 00:40:43;;;;;;;;;;;;;;;;;;4995850;28;20353;-49
2022/03/15 00:43:11;;;;;;;;;;;;;;;;;;4996100;28;19916;-49
2022/03/15 00:45:38;;;;;;;;;;;;;;;;;;4995757;28;19988;-52
2022/03/15 00:48:04;;;;;;;;;;;;;;;;;;5012110;23;19957;-50
2022/03/15 00:50:29;;;;;;;;;;;;;;;;;;5035557;28;19924;-49
2022/03/15 00:52:56;;;;;;;;;;;;;;;;;;5035396;28;19953;-49
2022/03/15 00:55:21;;;;;;;;;;;;;;;;;;5035206;28;19944;-49
2022/03/15 00:57:46;;;;;;;;;;;;;;;;;;5034790;28;20409;-49
2022/03/15 01:00:12;;;;;;;;;;;;;;;;;;5035191;28;20059;-49
2022/03/15 01:02:37;;;;;;;;;;;;;;;;;;5035187;28;19909;-49
2022/03/15 01:05:04;;;;;;;;;;;;;;;;;;5035371;28;19910;-48
2022/03/15 01:07:29;;;;;;;;;;;;;;;;;;5034537;28;20391;-49
2022/03/15 01:09:54;;;;;;;;;;;;;;;;;;5034891;28;19913;-49
2022/03/15 01:12:19;;;;;;;;;;;;;;;;;;5034912;28;19909;-52
2022/03/15 01:14:44;;;;;;;;;;;;;;;;;;5034923;28;20019;-49
2022/03/15 01:17:10;;;;;;;;;;;;;;;;;;5034345;28;19917;-48
2022/03/15 01:19:35;;;;;;;;;;;;;;;;;;5034904;28;19917;-49
2022/03/15 01:22:00;;;;;;;;;;;;;;;;;;5050130;28;19912;-51
2022/03/15 01:24:25;;;;;;;;;;;;;;;;;;5034752;28;19916;-48
2022/03/15 01:26:51;;;;;;;;;;;;;;;;;;5033624;28;19916;-50
2022/03/15 01:29:19;;;;;;;;;;;;;;;;;;5034427;28;19913;-49
2022/03/15 01:31:44;;;;;;;;;;;;;;;;;;5034145;28;20371;-50
2022/03/15 01:34:09;;;;;;;;;;;;;;;;;;5034516;28;19909;-50
2022/03/15 01:36:34;;;;;;;;;;;;;;;;;;5034160;28;19913;-51
2022/03/15 01:39:00;;;;;;;;;;;;;;;;;;5034640;28;20364;-49
2022/03/15 01:41:25;;;;;;;;;;;;;;;;;;5035005;28;19909;-49
2022/03/15 01:43:50;;;;;;;;;;;;;;;;;;5034645;28;19916;-50
2022/03/15 01:46:16;;;;;;;;;;;;;;;;;;5032645;28;19928;-48
2022/03/15 01:48:41;;;;;;;;;;;;;;;;;;5034408;28;19921;-51
2022/03/15 01:51:06;;;;;;;;;;;;;;;;;;5034434;28;19909;-51
2022/03/15 01:53:31;;;;;;;;;;;;;;;;;;5034469;28;19909;-51
2022/03/15 01:55:56;;;;;;;;;;;;;;;;;;5033464;28;19913;-48
2022/03/15 01:58:21;;;;;;;;;;;;;;;;;;5034138;28;19913;-48
2022/03/15 02:00:48;;;;;;;;;;;;;;;;;;5034398;28;19913;-49
2022/03/15 02:03:13;;;;;;;;;;;;;;;;;;5034462;28;19916;-48
2022/03/15 02:05:38;;;;;;;;;;;;;;;;;;5033869;28;19914;-49
2022/03/15 02:08:03;;;;;;;;;;;;;;;;;;5034011;28;19915;-50
2022/03/15 02:10:28;;;;;;;;;;;;;;;;;;5034199;28;19921;-48
2022/03/15 02:12:53;;;;;;;;;;;;;;;;;;5034084;28;20357;-49
2022/03/15 02:15:18;;;;;;;;;;;;;;;;;;5033900;28;19920;-51
2022/03/15 02:17:44;;;;;;;;;;;;;;;;;;5033917;28;20380;-48
2022/03/15 02:20:09;;;;;;;;;;;;;;;;;;5034145;28;19956;-51
2022/03/15 02:22:34;;;;;;;;;;;;;;;;;;5034160;28;19913;-49
2022/03/15 02:24:59;;;;;;;;;;;;;;;;;;5033667;28;19944;-49
2022/03/15 02:27:24;;;;;;;;;;;;;;;;;;5033424;28;19917;-49
2022/03/15 02:29:49;;;;;;;;;;;;;;;;;;5034000;28;20073;-48
2022/03/15 02:32:15;;;;;;;;;;;;;;;;;;5034180;28;19909;-49
2022/03/15 02:34:40;;;;;;;;;;;;;;;;;;5034186;28;19909;-49
2022/03/15 02:37:05;;;;;;;;;;;;;;;;;;5033506;28;19921;-49
2022/03/15 02:39:30;;;;;;;;;;;;;;;;;;5033911;28;19913;-48
2022/03/15 02:41:55;;;;;;;;;;;;;;;;;;5033952;28;20012;-47
2022/03/15 02:44:21;;;;;;;;;;;;;;;;;;5036907;28;19916;-48
2022/03/15 02:46:47;;;;;;;;;;;;;;;;;;5037533;28;19917;-48
2022/03/15 02:49:12;;;;;;;;;;;;;;;;;;5037559;28;19929;-51
2022/03/15 02:51:37;;;;;;;;;;;;;;;;;;5037570;28;19975;-48
2022/03/15 02:54:08;;;;;;;;;;;;;;;;;;5035304;28;19940;-50
2022/03/15 02:56:37;;;;;;;;;;;;;;;;;;5037617;28;20261;-49
2022/03/15 02:59:03;;;;;;;;;;;;;;;;;;5037461;28;19913;-47
2022/03/15 03:01:28;;;;;;;;;;;;;;;;;;5037361;28;20383;-50
2022/03/15 03:03:53;;;;;;;;;;;;;;;;;;5036820;28;20369;-49
2022/03/15 03:06:18;;;;;;;;;;;;;;;;;;5037132;28;19939;-49
2022/03/15 03:08:44;;;;;;;;;;;;;;;;;;5037425;28;19913;-48
2022/03/15 03:11:09;;;;;;;;;;;;;;;;;;5037173;28;19905;-50
2022/03/15 03:13:37;;;;;;;;;;;;;;;;;;5036527;28;19910;-48
2022/03/15 03:16:05;;;;;;;;;;;;;;;;;;5037038;28;20335;-48
2022/03/15 03:18:32;;;;;;;;;;;;;;;;;;5036965;28;19909;-50
2022/03/15 03:20:58;;;;;;;;;;;;;;;;;;5036837;28;19913;-47
2022/03/15 03:23:23;;;;;;;;;;;;;;;;;;5037049;28;19963;-48
2022/03/15 03:25:48;;;;;;;;;;;;;;;;;;5036176;28;19939;-50
2022/03/15 03:28:13;;;;;;;;;;;;;;;;;;5037044;28;20490;-50
2022/03/15 03:30:38;;;;;;;;;;;;;;;;;;5036784;28;19909;-49
2022/03/15 03:33:04;;;;;;;;;;;;;;;;;;5036827;28;19956;-49
2022/03/15 03:35:30;;;;;;;;;;;;;;;;;;5036149;28;20318;-50
2022/03/15 03:37:55;;;;;;;;;;;;;;;;;;5036686;28;19917;-49
2022/03/15 03:40:20;;;;;;;;;;;;;;;;;;5036694;28;20276;-48
2022/03/15 03:42:45;;;;;;;;;;;;;;;;;;5036676;28;19909;-50
2022/03/15 03:45:10;;;;;;;;;;;;;;;;;;5035813;28;19920;-48
2022/03/15 03:47:35;;;;;;;;;;;;;;;;;;5036387;28;20265;-49
2022/03/15 03:50:00;;;;;;;;;;;;;;;;;;5036397;28;19909;-49
2022/03/15 03:52:25;;;;;;;;;;;;;;;;;;5036224;28;20414;-50
2022/03/15 03:54:50;;;;;;;;;;;;;;;;;;5035329;28;19913;-49
2022/03/15 03:57:16;;;;;;;;;;;;;;;;;;5036074;28;20356;-48
2022/03/15 03:59:41;;;;;;;;;;;;;;;;;;5036126;28;20346;-49
2022/03/15 04:02:06;;;;;;;;;;;;;;;;;;5036088;28;20007;-48
2022/03/15 04:04:31;;;;;;;;;;;;;;;;;;5035785;28;19921;-48
2022/03/15 04:06:56;;;;;;;;;;;;;;;;;;5035716;28;20299;-49
2022/03/15 04:09:22;;;;;;;;;;;;;;;;;;5036157;28;20368;-48
2022/03/15 04:11:47;;;;;;;;;;;;;;;;;;5036384;28;19913;-49
2022/03/15 04:14:13;;;;;;;;;;;;;;;;;;5035292;28;19917;-49
2022/03/15 04:16:38;;;;;;;;;;;;;;;;;;5036012;28;20390;-49
2022/03/15 04:19:04;;;;;;;;;;;;;;;;;;5034935;28;19913;-52
2022/03/15 04:21:29;;;;;;;;;;;;;;;;;;5036020;28;19913;-51
2022/03/15 04:23:54;;;;;;;;;;;;;;;;;;5035074;28;20328;-50
2022/03/15 04:26:19;;;;;;;;;;;;;;;;;;5033663;28;20020;-47
2022/03/15 04:28:45;;;;;;;;;;;;;;;;;;5035764;28;19941;-49
2022/03/15 04:31:10;;;;;;;;;;;;;;;;;;5035689;28;19949;-49
2022/03/15 04:33:35;;;;;;;;;;;;;;;;;;5035412;28;19909;-50
2022/03/15 04:36:00;;;;;;;;;;;;;;;;;;5034909;28;19913;-49
2022/03/15 04:38:25;;;;;;;;;;;;;;;;;;5035752;28;20283;-50
2022/03/15 04:40:50;;;;;;;;;;;;;;;;;;5035445;28;19928;-48
2022/03/15 04:43:15;;;;;;;;;;;;;;;;;;5035394;28;19949;-48
2022/03/15 04:45:41;;;;;;;;;;;;;;;;;;5035069;28;20490;-48
2022/03/15 04:48:06;;;;;;;;;;;;;;;;;;5035175;28;20003;-47
2022/03/15 04:50:31;;;;;;;;;;;;;;;;;;5035499;28;19913;-49
2022/03/15 04:52:57;;;;;;;;;;;;;;;;;;5035342;28;19917;-51
2022/03/15 04:55:22;;;;;;;;;;;;;;;;;;5035028;28;19913;-48
2022/03/15 04:57:47;;;;;;;;;;;;;;;;;;5033274;28;19984;-49
2022/03/15 05:00:12;;;;;;;;;;;;;;;;;;5034941;28;20267;-49
2022/03/15 05:02:40;;;;;;;;;;;;;;;;;;5034768;28;19913;-50
2022/03/15 05:05:05;;;;;;;;;;;;;;;;;;5034435;28;19964;-49
2022/03/15 05:07:30;;;;;;;;;;;;;;;;;;5034148;28;20423;-49
2022/03/15 05:12:39;;;;;;;;;;;;;;;;;;5034946;28;19964;-49
2022/03/15 05:15:04;;;;;;;;;;;;;;;;;;5034648;28;19941;-49
2022/03/15 05:17:30;;;;;;;;;;;;;;;;;;5034551;28;19914;-49
2022/03/15 05:19:57;;;;;;;;;;;;;;;;;;5034600;28;19913;-49
2022/03/15 05:22:22;;;;;;;;;;;;;;;;;;5034637;28;19909;-49
2022/03/15 05:24:48;;;;;;;;;;;;;;;;;;5034188;28;19913;-51
2022/03/15 05:27:13;;;;;;;;;;;;;;;;;;5034202;28;20323;-49
2022/03/15 05:29:38;;;;;;;;;;;;;;;;;;5034763;28;19916;-48
2022/03/15 05:32:03;;;;;;;;;;;;;;;;;;5034600;28;20379;-51
2022/03/15 05:34:28;;;;;;;;;;;;;;;;;;5034492;28;20360;-49
2022/03/15 05:36:53;;;;;;;;;;;;;;;;;;5034225;28;19914;-49
2022/03/15 05:39:18;;;;;;;;;;;;;;;;;;5034402;28;19913;-49
2022/03/15 05:41:43;;;;;;;;;;;;;;;;;;5034416;28;20361;-49
2022/03/15 05:44:09;;;;;;;;;;;;;;;;;;5034384;28;19917;-48
2022/03/15 05:46:34;;;;;;;;;;;;;;;;;;5034271;28;19917;-49
2022/03/15 05:49:00;;;;;;;;;;;;;;;;;;5034258;28;19952;-50
2022/03/15 05:51:25;;;;;;;;;;;;;;;;;;5034604;28;19916;-48
2022/03/15 05:53:50;;;;;;;;;;;;;;;;;;5034111;28;19920;-49
2022/03/15 05:56:15;;;;;;;;;;;;;;;;;;5033343;28;20011;-51
2022/03/15 05:58:42;;;;;;;;;;;;;;;;;;5034438;28;20296;-49
2022/03/15 06:01:08;;;;;;;;;;;;;;;;;;5033108;28;20284;-49
2022/03/15 06:03:33;;;;;;;;;;;;;;;;;;5034335;28;19909;-50
2022/03/15 06:05:58;;;;;;;;;;;;;;;;;;5033849;28;19913;-51
2022/03/15 06:08:23;;;;;;;;;;;;;;;;;;5034166;28;19909;-50
2022/03/15 06:10:48;;;;;;;;;;;;;;;;;;5034245;28;19909;-49
2022/03/15 06:13:13;;;;;;;;;;;;;;;;;;5034366;28;19921;-48
2022/03/15 06:15:38;;;;;;;;;;;;;;;;;;5033947;28;19914;-49
2022/03/15 06:18:05;;;;;;;;;;;;;;;;;;5036649;28;19913;-51
2022/03/15 06:20:30;;;;;;;;;;;;;;;;;;5038252;28;19984;-51
2022/03/15 06:22:55;;;;;;;;;;;;;;;;;;5037891;28;19921;-51
2022/03/15 06:25:20;;;;;;;;;;;;;;;;;;5037891;28;19941;-50
2022/03/15 06:27:46;;;;;;;;;;;;;;;;;;5037270;28;19949;-51
2022/03/15 06:30:12;;;;;;;;;;;;;;;;;;5038089;28;20001;-51
2022/03/15 06:32:37;;;;;;;;;;;;;;;;;;5037924;28;19945;-51
2022/03/15 06:35:05;;;;;;;;;;;;;;;;;;5037948;28;19909;-51
2022/03/15 06:37:30;;;;;;;;;;;;;;;;;;5037504;28;19920;-51
2022/03/15 06:39:56;;;;;;;;;;;;;;;;;;5037453;28;20012;-51
2022/03/15 06:42:21;;;;;;;;;;;;;;;;;;5038086;28;19916;-52
2022/03/15 06:44:46;;;;;;;;;;;;;;;;;;5034091;28;19936;-51
2022/03/15 06:47:11;;;;;;;;;;;;;;;;;;5014237;28;19913;-51
2022/03/15 06:49:36;;;;;;;;;;;;;;;;;;5025479;28;19921;-51
2022/03/15 06:52:01;;;;;;;;;;;;;;;;;;5020742;28;19929;-51
2022/03/15 06:54:26;;;;;;;;;;;;;;;;;;5025606;28;20365;-51
2022/03/15 06:56:52;;;;;;;;;;;;;;;;;;5026438;28;19914;-51
2022/03/15 06:59:17;;;;;;;;;;;;;;;;;;5018574;28;20096;-52
2022/03/15 07:01:42;;;;;;;;;;;;;;;;;;4999804;28;19928;-52
2022/03/15 07:04:07;;;;;;;;;;;;;;;;;;5005518;28;19944;-50
2022/03/15 07:06:34;;;;;;;;;;;;;;;;;;5017459;28;20677;-52
2022/03/15 07:08:59;;;;;;;;;;;;;;;;;;5010793;28;19921;-51
2022/03/15 07:11:24;;;;;;;;;;;;;;;;;;4992244;28;21071;-53
2022/03/15 07:13:49;;;;;;;;;;;;;;;;;;4975227;28;21831;-52
2022/03/15 07:16:15;;;;;;;;;;;;;;;;;;4928047;28;20336;-51
2022/03/15 07:18:41;;;;;;;;;;;;;;;;;;4917175;28;20605;-53
2022/03/15 07:21:06;;;;;;;;;;;;;;;;;;4812709;28;20193;-55
2022/03/15 07:23:31;;;;;;;;;;;;;;;;;;4784049;28;20054;-52
2022/03/15 07:25:56;;;;;;;;;;;;;;;;;;4752796;28;20648;-54
2022/03/15 07:28:21;;;;;;;;;;;;;;;;;;4695965;28;21267;-52
2022/03/15 07:30:46;;;;;;;;;;;;;;;;;;4752472;28;21607;-52
2022/03/15 07:33:11;;;;;;;;;;;;;;;;;;4799743;28;19929;-51
2022/03/15 07:35:37;;;;;;;;;;;;;;;;;;4835542;28;21292;-51
2022/03/15 07:38:02;;;;;;;;;;;;;;;;;;4866698;28;22439;-52
2022/03/15 07:40:28;;;;;;;;;;;;;;;;;;4888835;28;23162;-54
2022/03/15 07:42:53;;;;;;;;;;;;;;;;;;4907059;28;19931;-52
2022/03/15 07:45:19;;;;;;;;;;;;;;;;;;4912349;28;19921;-52
2022/03/15 07:47:44;;;;;;;;;;;;;;;;;;4909716;28;20130;-53
2022/03/15 07:50:09;;;;;;;;;;;;;;;;;;4908593;28;21888;-53
2022/03/15 07:52:34;;;;;;;;;;;;;;;;;;4890164;28;19951;-55
2022/03/15 07:54:59;;;;;;;;;;;;;;;;;;4931648;28;19944;-52
2022/03/15 07:57:25;;;;;;;;;;;;;;;;;;4909091;28;21501;-55
2022/03/15 07:59:50;;;;;;;;;;;;;;;;;;4903785;28;20385;-53
2022/03/15 08:02:15;;;;;;;;;;;;;;;;;;4905324;28;20222;-53
2022/03/15 08:04:40;;;;;;;;;;;;;;;;;;4878405;28;19921;-52
2022/03/15 08:07:05;;;;;;;;;;;;;;;;;;4853800;28;20043;-54
2022/03/15 08:09:30;;;;;;;;;;;;;;;;;;4776442;28;22582;-53
2022/03/15 08:11:56;;;;;;;;;;;;;;;;;;4792561;28;19921;-54
2022/03/15 08:14:21;;;;;;;;;;;;;;;;;;4715266;28;20701;-52
2022/03/15 08:16:46;;;;;;;;;;;;;;;;;;4694226;28;20616;-53
2022/03/15 08:19:12;;;;;;;;;;;;;;;;;;4636804;28;21342;-49
2022/03/15 08:21:37;;;;;;;;;;;;;;;;;;4631607;28;19921;-53
2022/03/15 08:24:02;;;;;;;;;;;;;;;;;;4383951;28;20758;-55
2022/03/15 08:26:27;;;;;;;;;;;;;;;;;;4460584;28;20020;-54
2022/03/15 08:28:52;;;;;;;;;;;;;;;;;;4573447;28;20724;-52
2022/03/15 08:31:18;;;;;;;;;;;;;;;;;;4649116;28;19921;-55
2022/03/15 08:33:44;;;;;;;;;;;;;;;;;;4664896;28;20020;-56
2022/03/15 08:36:09;;;;;;;;;;;;;;;;;;4663853;28;21536;-52
2022/03/15 08:38:34;;;;;;;;;;;;;;;;;;4690530;28;20027;-53
2022/03/15 08:41:01;;;;;;;;;;;;;;;;;;4738065;28;19983;-55
2022/03/15 08:43:26;;;;;;;;;;;;;;;;;;4702165;28;22257;-52
2022/03/15 08:45:52;;;;;;;;;;;;;;;;;;4726872;28;20003;-52
2022/03/15 08:48:17;;;;;;;;;;;;;;;;;;4721677;28;19929;-54
2022/03/15 08:50:42;;;;;;;;;;;;;;;;;;4708887;28;19959;-52
2022/03/15 08:53:07;;;;;;;;;;;;;;;;;;4701831;28;19921;-55
2022/03/15 08:55:33;;;;;;;;;;;;;;;;;;4689591;28;22665;-52
2022/03/15 08:57:58;;;;;;;;;;;;;;;;;;4694166;28;21022;-51
2022/03/15 09:00:26;;;;;;;;;;;;;;;;;;4708485;28;20390;-53
2022/03/15 09:02:51;;;;;;;;;;;;;;;;;;4724922;28;20065;-50
2022/03/15 09:05:18;;;;;;;;;;;;;;;;;;4635224;28;21103;-53
2022/03/15 09:07:45;;;;;;;;;;;;;;;;;;4624618;28;20593;-54
2022/03/15 09:10:10;;;;;;;;;;;;;;;;;;4667672;28;21167;-51
2022/03/15 09:12:35;;;;;;;;;;;;;;;;;;4691291;28;22656;-55
2022/03/15 09:15:00;;;;;;;;;;;;;;;;;;4644799;28;19925;-54
2022/03/15 09:17:25;;;;;;;;;;;;;;;;;;4660314;28;20585;-52
2022/03/15 09:19:51;;;;;;;;;;;;;;;;;;4716047;28;21035;-55
2022/03/15 09:22:16;;;;;;;;;;;;;;;;;;4691780;28;22257;-53
2022/03/15 09:24:41;;;;;;;;;;;;;;;;;;4666721;28;20673;-54
2022/03/15 09:27:07;;;;;;;;;;;;;;;;;;4613644;28;20681;-55
2022/03/15 09:29:32;;;;;;;;;;;;;;;;;;4365845;28;22236;-55
2022/03/15 09:31:57;;;;;;;;;;;;;;;;;;4412728;28;22544;-54
2022/03/15 09:34:34;;;;;;;;;;;;;;;;;;4502077;28;21843;-52
2022/03/15 09:37:00;;;;;;;;;;;;;;;;;;4557731;28;22052;-54
2022/03/15 09:39:25;;;;;;;;;;;;;;;;;;4676587;28;20056;-52
2022/03/15 09:41:51;;;;;;;;;;;;;;;;;;4614454;28;21215;-54
2022/03/15 09:44:16;;;;;;;;;;;;;;;;;;4648399;28;20690;-54
2022/03/15 09:46:41;;;;;;;;;;;;;;;;;;4618533;28;21029;-53
2022/03/15 09:49:07;;;;;;;;;;;;;;;;;;4618361;28;19932;-55
2022/03/15 09:51:32;;;;;;;;;;;;;;;;;;4669376;28;21659;-55
2022/03/15 09:53:57;;;;;;;;;;;;;;;;;;4661677;28;20631;-53
2022/03/15 09:56:22;;;;;;;;;;;;;;;;;;4649033;28;23649;-52
2022/03/15 09:58:47;;;;;;;;;;;;;;;;;;4646290;28;25378;-54
2022/03/15 10:01:13;;;;;;;;;;;;;;;;;;4646784;28;20900;-54
2022/03/15 10:03:39;;;;;;;;;;;;;;;;;;4644290;28;19979;-54
2022/03/15 10:06:04;;;;;;;;;;;;;;;;;;4627766;28;20809;-54
2022/03/15 10:08:29;;;;;;;;;;;;;;;;;;4656255;28;19921;-53
2022/03/15 10:10:54;;;;;;;;;;;;;;;;;;4637972;28;25530;-55
2022/03/15 10:13:19;;;;;;;;;;;;;;;;;;4622910;28;20244;-55
2022/03/15 10:15:44;;;;;;;;;;;;;;;;;;4605465;28;21036;-56
2022/03/15 10:18:09;;;;;;;;;;;;;;;;;;4629651;28;19922;-55
2022/03/15 10:20:34;;;;;;;;;;;;;;;;;;4460309;28;20979;-52
2022/03/15 10:23:00;;;;;;;;;;;;;;;;;;4387324;28;21267;-54
2022/03/15 10:25:25;;;;;;;;;;;;;;;;;;4380472;28;21057;-56
2022/03/15 10:27:51;;;;;;;;;;;;;;;;;;4652301;28;19917;-55
2022/03/15 10:30:16;;;;;;;;;;;;;;;;;;4718723;28;19921;-54
2022/03/15 10:32:41;;;;;;;;;;;;;;;;;;4722817;28;23605;-53
2022/03/15 10:35:08;;;;;;;;;;;;;;;;;;4728707;28;19963;-52
2022/03/15 10:37:35;;;;;;;;;;;;;;;;;;4729044;28;19951;-53
2022/03/15 10:40:00;;;;;;;;;;;;;;;;;;4744474;28;19925;-55
2022/03/15 10:42:25;;;;;;;;;;;;;;;;;;4729456;28;20005;-53
2022/03/15 10:44:51;;;;;;;;;;;;;;;;;;4713458;28;19921;-55
2022/03/15 10:47:17;;;;;;;;;;;;;;;;;;4713578;28;20015;-55
2022/03/15 10:49:42;;;;;;;;;;;;;;;;;;4712699;28;20027;-55
2022/03/15 10:52:07;;;;;;;;;;;;;;;;;;4712408;28;19921;-55
2022/03/15 10:54:33;;;;;;;;;;;;;;;;;;4714094;28;19921;-56
2022/03/15 10:56:58;;;;;;;;;;;;;;;;;;4699066;28;21703;-55
2022/03/15 10:59:23;;;;;;;;;;;;;;;;;;4715213;28;19933;-53
2022/03/15 11:01:48;;;;;;;;;;;;;;;;;;4698808;28;20203;-55
2022/03/15 11:04:13;;;;;;;;;;;;;;;;;;4712052;28;21307;-54
2022/03/15 11:06:38;;;;;;;;;;;;;;;;;;4714401;28;21760;-54
2022/03/15 11:09:03;;;;;;;;;;;;;;;;;;4720638;28;20000;-52
2022/03/15 11:11:29;;;;;;;;;;;;;;;;;;4724374;28;19944;-52
2022/03/15 11:13:57;;;;;;;;;;;;;;;;;;4729084;28;19935;-53
2022/03/15 11:16:22;;;;;;;;;;;;;;;;;;4738210;28;23605;-54
2022/03/15 11:18:48;;;;;;;;;;;;;;;;;;4761561;28;20007;-56
2022/03/15 11:21:17;;;;;;;;;;;;;;;;;;4776042;28;19925;-51
2022/03/15 11:23:42;;;;;;;;;;;;;;;;;;4778526;28;20040;-55
2022/03/15 11:26:08;;;;;;;;;;;;;;;;;;4783027;28;19969;-55
2022/03/15 11:28:33;;;;;;;;;;;;;;;;;;4777059;28;23637;-52
2022/03/15 11:30:58;;;;;;;;;;;;;;;;;;4768175;28;19928;-56
2022/03/15 11:33:23;;;;;;;;;;;;;;;;;;4771776;28;20124;-54
2022/03/15 11:35:48;;;;;;;;;;;;;;;;;;4756502;28;19921;-53
2022/03/15 11:38:13;;;;;;;;;;;;;;;;;;4727625;28;23042;-53
2022/03/15 11:40:39;;;;;;;;;;;;;;;;;;4739593;28;21675;-53
2022/03/15 11:43:04;;;;;;;;;;;;;;;;;;4751944;28;19921;-53
2022/03/15 11:45:29;;;;;;;;;;;;;;;;;;4742155;28;19921;-54
2022/03/15 11:47:54;;;;;;;;;;;;;;;;;;4752654;28;20015;-53
2022/03/15 11:50:20;;;;;;;;;;;;;;;;;;4765964;28;19960;-54
2022/03/15 11:52:45;;;;;;;;;;;;;;;;;;4776977;28;21496;-55
2022/03/15 11:55:10;;;;;;;;;;;;;;;;;;4766360;28;19921;-55
2022/03/15 11:57:35;;;;;;;;;;;;;;;;;;4772258;28;19921;-52
2022/03/15 12:00:00;;;;;;;;;;;;;;;;;;4755296;28;24360;-55
2022/03/15 12:02:28;;;;;;;;;;;;;;;;;;4724551;28;19925;-55
2022/03/15 12:04:53;;;;;;;;;;;;;;;;;;4790258;28;19921;-47
2022/03/15 12:07:19;;;;;;;;;;;;;;;;;;4796512;28;19921;-56
2022/03/15 12:09:44;;;;;;;;;;;;;;;;;;4814417;28;19921;-55
2022/03/15 12:12:09;;;;;;;;;;;;;;;;;;4796774;28;19921;-55
2022/03/15 12:14:41;;;;;;;;;;;;;;;;;;4817072;28;19921;-55
2022/03/15 12:17:06;;;;;;;;;;;;;;;;;;4813468;28;20055;-55
2022/03/15 12:19:39;;;;;;;;;;;;;;;;;;4811028;28;19983;-54
2022/03/15 12:22:08;;;;;;;;;;;;;;;;;;4783689;28;19963;-53
2022/03/15 12:24:34;;;;;;;;;;;;;;;;;;4772934;28;19921;-55
2022/03/15 12:26:59;;;;;;;;;;;;;;;;;;4754167;28;19921;-54
2022/03/15 12:29:26;;;;;;;;;;;;;;;;;;4731460;28;23051;-55
2022/03/15 12:31:52;;;;;;;;;;;;;;;;;;4722782;28;19925;-55
2022/03/15 12:34:20;;;;;;;;;;;;;;;;;;4711838;28;19921;-55
2022/03/15 12:36:45;;;;;;;;;;;;;;;;;;4700727;28;20002;-53
2022/03/15 12:39:10;;;;;;;;;;;;;;;;;;4708698;28;19920;-55
2022/03/15 12:41:35;;;;;;;;;;;;;;;;;;4714954;28;19991;-56
2022/03/15 12:44:00;;;;;;;;;;;;;;;;;;4715456;28;19921;-55
2022/03/15 12:46:30;;;;;;;;;;;;;;;;;;4694603;28;21736;-54
2022/03/15 12:48:55;;;;;;;;;;;;;;;;;;4679663;23;20847;-54
2022/03/15 12:51:20;;;;;;;;;;;;;;;;;;4676881;28;20688;-53
2022/03/15 12:53:48;;;;;;;;;;;;;;;;;;4705804;28;21222;-57
2022/03/15 12:56:13;;;;;;;;;;;;;;;;;;4721108;28;20115;-55
2022/03/15 12:58:38;;;;;;;;;;;;;;;;;;4711997;28;19928;-55
2022/03/15 13:01:04;;;;;;;;;;;;;;;;;;4732314;28;19926;-55
2022/03/15 13:03:29;;;;;;;;;;;;;;;;;;4706003;28;19922;-54
2022/03/15 13:05:55;;;;;;;;;;;;;;;;;;4714923;28;22566;-57
2022/03/15 13:08:21;;;;;;;;;;;;;;;;;;4709759;28;21883;-56
2022/03/15 13:10:47;;;;;;;;;;;;;;;;;;4706694;28;19929;-55
2022/03/15 13:13:13;;;;;;;;;;;;;;;;;;4707054;28;19921;-56
2022/03/15 13:15:38;;;;;;;;;;;;;;;;;;4693909;28;19921;-55
2022/03/15 13:18:05;;;;;;;;;;;;;;;;;;4697115;28;21061;-55
2022/03/15 13:20:34;;;;;;;;;;;;;;;;;;4491967;28;21365;-55
2022/03/15 13:23:03;;;;;;;;;;;;;;;;;;4205468;28;25086;-55
2022/03/15 13:25:28;;;;;;;;;;;;;;;;;;4306433;28;20553;-52
2022/03/15 13:27:53;;;;;;;;;;;;;;;;;;4477624;28;20696;-54
2022/03/15 13:30:19;;;;;;;;;;;;;;;;;;4604382;28;22024;-56
2022/03/15 13:32:44;;;;;;;;;;;;;;;;;;4631025;28;20679;-58
2022/03/15 13:35:09;;;;;;;;;;;;;;;;;;4632535;28;19929;-54
2022/03/15 13:37:34;;;;;;;;;;;;;;;;;;4628021;28;26484;-57
2022/03/15 13:40:00;;;;;;;;;;;;;;;;;;4574345;28;19925;-56
2022/03/15 13:42:26;;;;;;;;;;;;;;;;;;4614568;28;21656;-57
2022/03/15 13:44:53;;;;;;;;;;;;;;;;;;4654545;28;20580;-56
2022/03/15 13:47:21;;;;;;;;;;;;;;;;;;4679221;28;21451;-57
2022/03/15 13:49:48;;;;;;;;;;;;;;;;;;4663080;28;19934;-54
2022/03/15 13:52:13;;;;;;;;;;;;;;;;;;4654555;28;22827;-56
2022/03/15 13:54:38;;;;;;;;;;;;;;;;;;4680866;28;19963;-55
2022/03/15 13:57:07;;;;;;;;;;;;;;;;;;4699001;28;20676;-54
2022/03/15 13:59:32;;;;;;;;;;;;;;;;;;4719645;28;20936;-57
2022/03/15 14:01:57;;;;;;;;;;;;;;;;;;4680072;28;21597;-55
2022/03/15 14:04:22;;;;;;;;;;;;;;;;;;4674286;28;21079;-54
2022/03/15 14:06:48;;;;;;;;;;;;;;;;;;4693481;28;22607;-56
2022/03/15 14:09:13;;;;;;;;;;;;;;;;;;4691436;28;21120;-53
2022/03/15 14:11:45;;;;;;;;;;;;;;;;;;4648269;28;23517;-55
2022/03/15 14:14:13;;;;;;;;;;;;;;;;;;4663852;28;21257;-54
2022/03/15 14:16:38;;;;;;;;;;;;;;;;;;4717659;28;19921;-56
2022/03/15 14:19:04;;;;;;;;;;;;;;;;;;4808904;28;21360;-56
2022/03/15 14:21:30;;;;;;;;;;;;;;;;;;4876259;28;20587;-53
2022/03/15 14:23:55;;;;;;;;;;;;;;;;;;4890252;28;19928;-55
2022/03/15 14:26:22;;;;;;;;;;;;;;;;;;4903730;28;19925;-53
2022/03/15 14:28:47;;;;;;;;;;;;;;;;;;4904728;28;19921;-54
2022/03/15 14:31:12;;;;;;;;;;;;;;;;;;4924671;28;20080;-52
2022/03/15 14:33:39;;;;;;;;;;;;;;;;;;4922287;28;21045;-54
2022/03/15 14:36:04;;;;;;;;;;;;;;;;;;4922503;28;19922;-52
2022/03/15 14:38:31;;;;;;;;;;;;;;;;;;4927017;28;20007;-55
2022/03/15 14:40:57;;;;;;;;;;;;;;;;;;4914303;28;20625;-55
2022/03/15 14:43:22;;;;;;;;;;;;;;;;;;4924167;28;19922;-55
2022/03/15 14:45:48;;;;;;;;;;;;;;;;;;4919027;28;22010;-53
2022/03/15 14:48:13;;;;;;;;;;;;;;;;;;4909671;28;19925;-53
2022/03/15 14:50:38;;;;;;;;;;;;;;;;;;4913484;28;21893;-51
2022/03/15 14:53:04;;;;;;;;;;;;;;;;;;4915974;28;21649;-54
2022/03/15 14:55:32;;;;;;;;;;;;;;;;;;4919457;28;19968;-57
2022/03/15 14:57:57;;;;;;;;;;;;;;;;;;4914969;28;19921;-55
2022/03/15 15:00:22;;;;;;;;;;;;;;;;;;4894482;28;20609;-53
2022/03/15 15:02:52;;;;;;;;;;;;;;;;;;4883508;28;19925;-56
2022/03/15 15:05:17;;;;;;;;;;;;;;;;;;4901264;28;20003;-56
2022/03/15 15:07:43;;;;;;;;;;;;;;;;;;4940736;28;19921;-55
2022/03/15 15:10:09;;;;;;;;;;;;;;;;;;4969885;28;19984;-53
2022/03/15 15:12:35;;;;;;;;;;;;;;;;;;4973243;28;20028;-55
2022/03/15 15:15:02;;;;;;;;;;;;;;;;;;4974599;28;19931;-56
2022/03/15 15:17:30;;;;;;;;;;;;;;;;;;4986368;28;20021;-54
2022/03/15 15:19:55;;;;;;;;;;;;;;;;;;4965373;28;20282;-54
2022/03/15 15:22:20;;;;;;;;;;;;;;;;;;4980304;28;19924;-54
2022/03/15 15:24:46;;;;;;;;;;;;;;;;;;4991617;28;21471;-55
2022/03/15 15:27:12;;;;;;;;;;;;;;;;;;4990880;28;19983;-55
2022/03/15 15:29:40;;;;;;;;;;;;;;;;;;4977895;28;20008;-56
2022/03/15 15:32:05;;;;;;;;;;;;;;;;;;4982786;28;19921;-54
2022/03/15 15:34:31;;;;;;;;;;;;;;;;;;4982628;28;19922;-55
2022/03/15 15:36:57;;;;;;;;;;;;;;;;;;4986353;28;19922;-54
2022/03/15 15:39:22;;;;;;;;;;;;;;;;;;4981799;28;20401;-54
2022/03/15 15:41:47;;;;;;;;;;;;;;;;;;4984980;28;19928;-56
2022/03/15 15:44:14;;;;;;;;;;;;;;;;;;4984148;28;19922;-53
2022/03/15 15:46:40;;;;;;;;;;;;;;;;;;4982142;28;19922;-55
2022/03/15 15:49:08;;;;;;;;;;;;;;;;;;4976315;28;21211;-53
2022/03/15 15:51:35;;;;;;;;;;;;;;;;;;4958700;28;19922;-52
2022/03/15 15:54:00;;;;;;;;;;;;;;;;;;4948030;28;19979;-53
2022/03/15 15:56:30;;;;;;;;;;;;;;;;;;4946510;28;19922;-55
2022/03/15 15:58:55;;;;;;;;;;;;;;;;;;4950877;28;19921;-54
2022/03/15 16:01:24;;;;;;;;;;;;;;;;;;4960838;28;20016;-55
2022/03/15 16:03:50;;;;;;;;;;;;;;;;;;4991819;28;19921;-51
2022/03/15 16:06:15;;;;;;;;;;;;;;;;;;4993071;28;19932;-53
2022/03/15 16:08:42;;;;;;;;;;;;;;;;;;4996182;28;20281;-52
2022/03/15 16:11:07;;;;;;;;;;;;;;;;;;5000634;28;19941;-52
2022/03/15 16:13:35;;;;;;;;;;;;;;;;;;5003735;28;20045;-55
2022/03/15 16:16:00;;;;;;;;;;;;;;;;;;5003170;28;19926;-54
2022/03/15 16:18:25;;;;;;;;;;;;;;;;;;5010266;28;20051;-52
2022/03/15 16:20:50;;;;;;;;;;;;;;;;;;5004679;28;19971;-53
2022/03/15 16:23:15;;;;;;;;;;;;;;;;;;5004415;28;20292;-52
2022/03/15 16:25:41;;;;;;;;;;;;;;;;;;5007355;28;20000;-52
2022/03/15 16:28:06;;;;;;;;;;;;;;;;;;5012130;28;19996;-52
2022/03/15 16:30:31;;;;;;;;;;;;;;;;;;5007503;28;19920;-54
2022/03/15 16:32:56;;;;;;;;;;;;;;;;;;5009300;28;20011;-52
2022/03/15 16:35:21;;;;;;;;;;;;;;;;;;5013057;28;19913;-53
2022/03/15 16:37:46;;;;;;;;;;;;;;;;;;5013390;28;19913;-54